Humidity-temperature Sensor

Selected Measurement Type: Relative Humidity

 
Relative Humidity [%]     6 entries per hour
Showing data from 10/24/2021 (00:00:00 Z) to 10/23/2021 (00:01:00 Z)
Previous Next [ Day | 3-Days | 7-Days ]
First Last
Prev [ Day | 3-Days | 7-Days ] Next
First Last

Start Time:     :
End Time:     :     
Time (in GMT) :00 :50 :40 :30 :20 :10
Previous Next [ Day | 3-Days | 7-Days ]
First Last
Prev [ Day | 3-Days | 7-Days ] Next
First Last


123 => good data
MM => data is determined as missing
-- => data not received/configured
Back to Top Back to Top
10/24/2021 00:00 to 23:10 81.87 81.25 81.87 81.66 80.38 80.50
10/23/2021 23:00 to 22:10 80.19 81.29 81.08 82.50 82.66 81.48
10/23/2021 22:00 to 21:10 80.77 79.48 77.45 77.09 78.30 77.74
10/23/2021 21:00 to 20:10 78.13 77.84 77.74 81.02 83.29 81.75
10/23/2021 20:00 to 19:10 81.81 82.52 81.29 81.46 83.16 83.62
10/23/2021 19:00 to 18:10 83.08 83.41 84.26 86.17 86.03 86.63
10/23/2021 18:00 to 17:10 86.76 85.88 84.91 82.29 81.08 82.43
10/23/2021 17:00 to 16:10 82.14 84.37 82.27 82.91 82.06 80.94
10/23/2021 16:00 to 15:10 83.87 81.12 82.20 83.02 84.53 87.98
10/23/2021 15:00 to 14:10 91.77 92.04 92.24 92.08 89.19 85.41
10/23/2021 14:00 to 13:10 82.23 82.50 82.91 84.03 87.46 86.40
10/23/2021 13:00 to 12:10 81.14 75.89 74.37 73.73 72.67 75.93
10/23/2021 12:00 to 11:10 77.92 81.50 86.01 88.92 89.40 88.54
10/23/2021 11:00 to 10:10 87.19 83.08 83.45 86.90 87.92 88.11
10/23/2021 10:00 to 9:10 86.51 87.28 89.48 88.13 79.46 77.01
10/23/2021 09:00 to 8:10 78.84 81.35 81.04 81.79 82.81 83.37
10/23/2021 08:00 to 7:10 83.68 84.82 84.26 83.41 81.98 82.54
10/23/2021 07:00 to 6:10 83.31 83.43 83.51 82.83 83.26 84.30
10/23/2021 06:00 to 5:10 84.41 84.68 85.03 85.65 84.99 84.53
10/23/2021 05:00 to 4:10 85.05 84.53 84.53 83.85 83.74 85.20
10/23/2021 04:00 to 3:10 85.80 85.26 85.05 86.01 86.96 87.46
10/23/2021 03:00 to 2:10 87.36 88.07 86.96 85.78 86.09 85.22
10/23/2021 02:00 to 1:10 84.64 83.39 83.06 82.37 81.85 80.67
10/23/2021 01:00 to 0:10 79.21 78.42 77.63 78.80 79.96 81.25